sensor_id;sensor_type;location;lat;lon;timestamp;pressure;altitude;pressure_sealevel;temperature;humidity
67840;BME280;54636;51.684;5.142;2022-12-24T00:02:15;100705.13;;;9.09;100.00
67840;BME280;54636;51.684;5.142;2022-12-24T00:04:40;100706.13;;;9.12;100.00
67840;BME280;54636;51.684;5.142;2022-12-24T00:07:06;100697.75;;;9.10;100.00
67840;BME280;54636;51.684;5.142;2022-12-24T00:09:31;100704.91;;;9.13;100.00
67840;BME280;54636;51.684;5.142;2022-12-24T00:11:56;100706.22;;;9.17;100.00
67840;BME280;54636;51.684;5.142;2022-12-24T00:14:22;100709.19;;;9.19;100.00
67840;BME280;54636;51.684;5.142;2022-12-24T00:16:47;100716.19;;;9.26;100.00
67840;BME280;54636;51.684;5.142;2022-12-24T00:19:13;100722.53;;;9.23;100.00
67840;BME280;54636;51.684;5.142;2022-12-24T00:21:38;100714.06;;;9.15;100.00
67840;BME280;54636;51.684;5.142;2022-12-24T00:24:04;100725.91;;;9.18;100.00
67840;BME280;54636;51.684;5.142;2022-12-24T00:26:30;100725.19;;;9.17;100.00
67840;BME280;54636;51.684;5.142;2022-12-24T00:28:56;100734.66;;;9.07;100.00
67840;BME280;54636;51.684;5.142;2022-12-24T00:31:21;100728.03;;;9.08;100.00
67840;BME280;54636;51.684;5.142;2022-12-24T00:33:46;100735.13;;;9.06;100.00
67840;BME280;54636;51.684;5.142;2022-12-24T00:36:12;100738.03;;;9.02;100.00
67840;BME280;54636;51.684;5.142;2022-12-24T00:38:37;100738.50;;;9.01;100.00
67840;BME280;54636;51.684;5.142;2022-12-24T00:41:04;100743.38;;;8.97;100.00
67840;BME280;54636;51.684;5.142;2022-12-24T00:43:29;100748.53;;;8.95;100.00
67840;BME280;54636;51.684;5.142;2022-12-24T00:45:54;100753.56;;;8.87;100.00
67840;BME280;54636;51.684;5.142;2022-12-24T00:48:20;100755.16;;;8.94;100.00
67840;BME280;54636;51.684;5.142;2022-12-24T00:50:47;100755.16;;;8.94;100.00
67840;BME280;54636;51.684;5.142;2022-12-24T00:53:12;100755.91;;;8.94;100.00
67840;BME280;54636;51.684;5.142;2022-12-24T00:55:40;100763.84;;;8.83;100.00
67840;BME280;54636;51.684;5.142;2022-12-24T00:58:05;100776.28;;;8.89;100.00
67840;BME280;54636;51.684;5.142;2022-12-24T01:00:31;100775.25;;;8.87;100.00
67840;BME280;54636;51.684;5.142;2022-12-24T01:02:56;100775.06;;;8.90;100.00
67840;BME280;54636;51.684;5.142;2022-12-24T01:05:21;100772.44;;;8.96;100.00
67840;BME280;54636;51.684;5.142;2022-12-24T01:07:47;100777.47;;;8.88;100.00
67840;BME280;54636;51.684;5.142;2022-12-24T01:10:14;100773.00;;;8.85;100.00
67840;BME280;54636;51.684;5.142;2022-12-24T01:12:40;100779.06;;;8.80;100.00
67840;BME280;54636;51.684;5.142;2022-12-24T01:15:05;100771.78;;;8.86;100.00
67840;BME280;54636;51.684;5.142;2022-12-24T01:17:32;100787.84;;;8.75;100.00
67840;BME280;54636;51.684;5.142;2022-12-24T01:19:58;100794.03;;;8.76;100.00
67840;BME280;54636;51.684;5.142;2022-12-24T01:22:23;100796.16;;;8.72;100.00
67840;BME280;54636;51.684;5.142;2022-12-24T01:24:48;100797.75;;;8.64;100.00
67840;BME280;54636;51.684;5.142;2022-12-24T01:27:13;100808.75;;;8.60;100.00
67840;BME280;54636;51.684;5.142;2022-12-24T01:29:39;100800.66;;;8.60;100.00
67840;BME280;54636;51.684;5.142;2022-12-24T01:32:04;100799.97;;;8.50;100.00
67840;BME280;54636;51.684;5.142;2022-12-24T01:34:29;100800.63;;;8.45;100.00
67840;BME280;54636;51.684;5.142;2022-12-24T01:36:55;100817.38;;;8.44;100.00
67840;BME280;54636;51.684;5.142;2022-12-24T01:39:20;100824.16;;;8.39;100.00
67840;BME280;54636;51.684;5.142;2022-12-24T01:41:45;100822.22;;;8.40;100.00
67840;BME280;54636;51.684;5.142;2022-12-24T01:44:31;100812.78;;;8.35;100.00
67840;BME280;54636;51.684;5.142;2022-12-24T01:49:44;100818.97;;;8.26;100.00
67840;BME280;54636;51.684;5.142;2022-12-24T01:52:12;100830.28;;;8.25;100.00
67840;BME280;54636;51.684;5.142;2022-12-24T01:54:49;100827.53;;;8.34;100.00
67840;BME280;54636;51.684;5.142;2022-12-24T01:57:19;100834.75;;;8.28;100.00
67840;BME280;54636;51.684;5.142;2022-12-24T01:59:48;100834.47;;;8.26;100.00
67840;BME280;54636;51.684;5.142;2022-12-24T02:02:15;100840.06;;;8.22;100.00
67840;BME280;54636;51.684;5.142;2022-12-24T02:04:58;100846.63;;;8.31;100.00
67840;BME280;54636;51.684;5.142;2022-12-24T02:07:24;100846.63;;;8.31;100.00
67840;BME280;54636;51.684;5.142;2022-12-24T02:09:51;100856.19;;;8.41;100.00
67840;BME280;54636;51.684;5.142;2022-12-24T02:12:17;100850.59;;;8.44;100.00
67840;BME280;54636;51.684;5.142;2022-12-24T02:14:42;100848.88;;;8.47;100.00
67840;BME280;54636;51.684;5.142;2022-12-24T02:24:59;100852.56;;;8.73;100.00
67840;BME280;54636;51.684;5.142;2022-12-24T02:30:11;100863.50;;;8.94;100.00
67840;BME280;54636;51.684;5.142;2022-12-24T02:32:42;100859.69;;;9.00;100.00
67840;BME280;54636;51.684;5.142;2022-12-24T02:35:11;100865.94;;;8.91;100.00
67840;BME280;54636;51.684;5.142;2022-12-24T02:37:42;100870.13;;;8.93;100.00
67840;BME280;54636;51.684;5.142;2022-12-24T02:42:38;100865.66;;;9.04;100.00
67840;BME280;54636;51.684;5.142;2022-12-24T02:45:15;100868.28;;;8.99;100.00
67840;BME280;54636;51.684;5.142;2022-12-24T02:47:42;100869.56;;;8.88;100.00
67840;BME280;54636;51.684;5.142;2022-12-24T02:50:10;100871.63;;;8.94;100.00
67840;BME280;54636;51.684;5.142;2022-12-24T02:52:39;100878.53;;;8.95;100.00
67840;BME280;54636;51.684;5.142;2022-12-24T03:00:11;100877.72;;;9.03;100.00
67840;BME280;54636;51.684;5.142;2022-12-24T03:02:51;100881.44;;;9.06;100.00
67840;BME280;54636;51.684;5.142;2022-12-24T03:12:53;100886.84;;;9.20;100.00
67840;BME280;54636;51.684;5.142;2022-12-24T03:15:20;100896.09;;;9.29;100.00
67840;BME280;54636;51.684;5.142;2022-12-24T03:17:46;100888.50;;;9.33;100.00
67840;BME280;54636;51.684;5.142;2022-12-24T03:20:14;100890.84;;;9.40;100.00
67840;BME280;54636;51.684;5.142;2022-12-24T03:22:42;100907.09;;;9.40;100.00
67840;BME280;54636;51.684;5.142;2022-12-24T03:25:08;100899.72;;;9.40;100.00
67840;BME280;54636;51.684;5.142;2022-12-24T03:27:33;100905.69;;;9.44;100.00
67840;BME280;54636;51.684;5.142;2022-12-24T03:29:59;100899.63;;;9.49;100.00
67840;BME280;54636;51.684;5.142;2022-12-24T03:32:30;100900.56;;;9.46;100.00
67840;BME280;54636;51.684;5.142;2022-12-24T03:34:56;100903.06;;;9.50;100.00
67840;BME280;54636;51.684;5.142;2022-12-24T03:37:23;100908.13;;;9.57;100.00
67840;BME280;54636;51.684;5.142;2022-12-24T03:39:49;100913.53;;;9.57;100.00
67840;BME280;54636;51.684;5.142;2022-12-24T03:42:15;100905.69;;;9.59;100.00
67840;BME280;54636;51.684;5.142;2022-12-24T03:44:40;100902.78;;;9.63;100.00
67840;BME280;54636;51.684;5.142;2022-12-24T03:47:05;100906.31;;;9.69;100.00
67840;BME280;54636;51.684;5.142;2022-12-24T03:49:33;100904.44;;;9.75;100.00
67840;BME280;54636;51.684;5.142;2022-12-24T03:51:58;100905.31;;;9.86;100.00
67840;BME280;54636;51.684;5.142;2022-12-24T03:54:23;100906.72;;;9.82;100.00
67840;BME280;54636;51.684;5.142;2022-12-24T03:56:51;100913.53;;;9.92;100.00
67840;BME280;54636;51.684;5.142;2022-12-24T03:59:17;100913.31;;;9.96;100.00
67840;BME280;54636;51.684;5.142;2022-12-24T04:01:42;100911.34;;;9.96;100.00
67840;BME280;54636;51.684;5.142;2022-12-24T04:04:07;100902.88;;;9.88;100.00
67840;BME280;54636;51.684;5.142;2022-12-24T04:06:33;100916.44;;;9.88;100.00
67840;BME280;54636;51.684;5.142;2022-12-24T04:08:58;100904.91;;;9.94;100.00
67840;BME280;54636;51.684;5.142;2022-12-24T04:11:26;100913.13;;;9.99;100.00
67840;BME280;54636;51.684;5.142;2022-12-24T04:13:51;100917.81;;;9.99;100.00
67840;BME280;54636;51.684;5.142;2022-12-24T04:16:16;100934.94;;;9.90;100.00
67840;BME280;54636;51.684;5.142;2022-12-24T04:18:42;100921.19;;;9.94;100.00
67840;BME280;54636;51.684;5.142;2022-12-24T04:21:08;100928.56;;;9.93;100.00
67840;BME280;54636;51.684;5.142;2022-12-24T04:23:33;100926.69;;;9.99;100.00
67840;BME280;54636;51.684;5.142;2022-12-24T04:26:00;100929.81;;;9.92;100.00
67840;BME280;54636;51.684;5.142;2022-12-24T04:28:25;100936.53;;;9.97;100.00
67840;BME280;54636;51.684;5.142;2022-12-24T04:30:50;100936.16;;;9.89;100.00
67840;BME280;54636;51.684;5.142;2022-12-24T04:33:16;100930.53;;;9.93;100.00
67840;BME280;54636;51.684;5.142;2022-12-24T04:35:41;100945.91;;;9.81;100.00
67840;BME280;54636;51.684;5.142;2022-12-24T04:38:07;100940.97;;;9.79;100.00
67840;BME280;54636;51.684;5.142;2022-12-24T04:40:32;100944.97;;;9.84;100.00
67840;BME280;54636;51.684;5.142;2022-12-24T04:42:58;100949.38;;;9.81;100.00
67840;BME280;54636;51.684;5.142;2022-12-24T04:45:23;100951.97;;;9.90;100.00
67840;BME280;54636;51.684;5.142;2022-12-24T04:47:48;100952.53;;;9.95;100.00
67840;BME280;54636;51.684;5.142;2022-12-24T04:50:13;100950.63;;;10.01;100.00
67840;BME280;54636;51.684;5.142;2022-12-24T04:52:39;100955.72;;;9.93;100.00
67840;BME280;54636;51.684;5.142;2022-12-24T04:55:04;100955.53;;;9.97;100.00
67840;BME280;54636;51.684;5.142;2022-12-24T04:57:30;100944.13;;;9.93;100.00
67840;BME280;54636;51.684;5.142;2022-12-24T04:59:55;100954.09;;;10.01;100.00
67840;BME280;54636;51.684;5.142;2022-12-24T05:02:20;100959.25;;;9.99;100.00
67840;BME280;54636;51.684;5.142;2022-12-24T05:04:46;100960.47;;;9.98;100.00
67840;BME280;54636;51.684;5.142;2022-12-24T05:07:11;100937.09;;;9.86;100.00
67840;BME280;54636;51.684;5.142;2022-12-24T05:09:36;100958.50;;;9.99;100.00
67840;BME280;54636;51.684;5.142;2022-12-24T05:12:01;100964.69;;;9.99;100.00
67840;BME280;54636;51.684;5.142;2022-12-24T05:14:27;100964.59;;;9.94;100.00
67840;BME280;54636;51.684;5.142;2022-12-24T05:16:52;100956.25;;;9.97;100.00
67840;BME280;54636;51.684;5.142;2022-12-24T05:19:17;100965.81;;;9.93;100.00
67840;BME280;54636;51.684;5.142;2022-12-24T05:21:42;100957.94;;;9.95;100.00
67840;BME280;54636;51.684;5.142;2022-12-24T05:24:09;100957.59;;;9.87;100.00
67840;BME280;54636;51.684;5.142;2022-12-24T05:26:53;100950.94;;;9.88;100.00
67840;BME280;54636;51.684;5.142;2022-12-24T05:29:20;100959.09;;;9.88;100.00
67840;BME280;54636;51.684;5.142;2022-12-24T05:31:45;100962.00;;;9.84;100.00
67840;BME280;54636;51.684;5.142;2022-12-24T05:34:12;100962.09;;;9.90;100.00
67840;BME280;54636;51.684;5.142;2022-12-24T05:36:38;100966.22;;;9.85;100.00
67840;BME280;54636;51.684;5.142;2022-12-24T05:39:03;100967.22;;;9.88;100.00
67840;BME280;54636;51.684;5.142;2022-12-24T05:41:28;100960.66;;;9.95;100.00
67840;BME280;54636;51.684;5.142;2022-12-24T05:43:54;100976.03;;;9.83;100.00
67840;BME280;54636;51.684;5.142;2022-12-24T05:46:20;100975.56;;;9.84;100.00
67840;BME280;54636;51.684;5.142;2022-12-24T05:48:46;100972.00;;;9.93;100.00
67840;BME280;54636;51.684;5.142;2022-12-24T05:51:12;100984.25;;;9.88;100.00
67840;BME280;54636;51.684;5.142;2022-12-24T05:53:37;100987.34;;;9.81;100.00
67840;BME280;54636;51.684;5.142;2022-12-24T05:56:03;101004.09;;;9.95;100.00
67840;BME280;54636;51.684;5.142;2022-12-24T05:58:28;100995.66;;;9.93;100.00
67840;BME280;54636;51.684;5.142;2022-12-24T06:00:54;100989.69;;;9.88;100.00
67840;BME280;54636;51.684;5.142;2022-12-24T06:03:19;100989.50;;;9.77;100.00
67840;BME280;54636;51.684;5.142;2022-12-24T06:05:44;101000.91;;;9.81;100.00
67840;BME280;54636;51.684;5.142;2022-12-24T06:08:09;101013.94;;;9.77;100.00
67840;BME280;54636;51.684;5.142;2022-12-24T06:10:35;101018.59;;;9.77;100.00
67840;BME280;54636;51.684;5.142;2022-12-24T06:13:00;101020.38;;;9.80;100.00
67840;BME280;54636;51.684;5.142;2022-12-24T06:15:25;101018.88;;;9.94;100.00
67840;BME280;54636;51.684;5.142;2022-12-24T06:17:50;101020.00;;;9.87;100.00
67840;BME280;54636;51.684;5.142;2022-12-24T06:20:16;101018.59;;;9.77;100.00
67840;BME280;54636;51.684;5.142;2022-12-24T06:22:41;101008.03;;;9.79;100.00
67840;BME280;54636;51.684;5.142;2022-12-24T06:25:06;101020.44;;;10.00;100.00
67840;BME280;54636;51.684;5.142;2022-12-24T06:27:32;101012.53;;;9.82;100.00
67840;BME280;54636;51.684;5.142;2022-12-24T06:29:57;101019.09;;;9.61;100.00
67840;BME280;54636;51.684;5.142;2022-12-24T06:32:22;101021.34;;;9.62;100.00
67840;BME280;54636;51.684;5.142;2022-12-24T06:34:47;101020.97;;;9.54;100.00
67840;BME280;54636;51.684;5.142;2022-12-24T06:37:13;101030.03;;;9.37;100.00
67840;BME280;54636;51.684;5.142;2022-12-24T06:39:43;101032.75;;;9.37;100.00
67840;BME280;54636;51.684;5.142;2022-12-24T06:42:08;101031.03;;;9.24;100.00
67840;BME280;54636;51.684;5.142;2022-12-24T06:44:34;101029.44;;;9.18;100.00
67840;BME280;54636;51.684;5.142;2022-12-24T06:46:59;101031.50;;;9.23;100.00
67840;BME280;54636;51.684;5.142;2022-12-24T06:49:24;101028.78;;;9.23;100.00
67840;BME280;54636;51.684;5.142;2022-12-24T06:51:50;101020.00;;;9.13;100.00
67840;BME280;54636;51.684;5.142;2022-12-24T06:54:15;101033.25;;;9.11;100.00
67840;BME280;54636;51.684;5.142;2022-12-24T06:56:40;101031.22;;;9.06;100.00
67840;BME280;54636;51.684;5.142;2022-12-24T06:59:05;101024.13;;;9.09;100.00
67840;BME280;54636;51.684;5.142;2022-12-24T07:01:31;101028.88;;;9.14;100.00
67840;BME280;54636;51.684;5.142;2022-12-24T07:03:56;101039.63;;;9.08;100.00
67840;BME280;54636;51.684;5.142;2022-12-24T07:06:25;101039.16;;;9.10;100.00
67840;BME280;54636;51.684;5.142;2022-12-24T07:08:52;101037.00;;;9.14;100.00
67840;BME280;54636;51.684;5.142;2022-12-24T07:11:17;101033.25;;;9.11;100.00
67840;BME280;54636;51.684;5.142;2022-12-24T07:13:42;101034.38;;;9.05;100.00
67840;BME280;54636;51.684;5.142;2022-12-24T07:16:08;101040.56;;;9.05;100.00
67840;BME280;54636;51.684;5.142;2022-12-24T07:18:33;101047.38;;;9.01;100.00
67840;BME280;54636;51.684;5.142;2022-12-24T07:20:58;101043.50;;;8.93;100.00
67840;BME280;54636;51.684;5.142;2022-12-24T07:23:24;101047.81;;;8.99;100.00
67840;BME280;54636;51.684;5.142;2022-12-24T07:25:49;101047.72;;;8.94;100.00
67840;BME280;54636;51.684;5.142;2022-12-24T07:28:14;101055.72;;;8.88;100.00
67840;BME280;54636;51.684;5.142;2022-12-24T07:30:39;101056.38;;;8.83;100.00
67840;BME280;54636;51.684;5.142;2022-12-24T07:33:05;101071.75;;;8.77;100.00
67840;BME280;54636;51.684;5.142;2022-12-24T07:35:30;101070.44;;;8.72;100.00
67840;BME280;54636;51.684;5.142;2022-12-24T07:37:55;101083.38;;;8.68;100.00
67840;BME280;54636;51.684;5.142;2022-12-24T07:40:21;101091.91;;;8.76;100.00
67840;BME280;54636;51.684;5.142;2022-12-24T07:42:46;101094.38;;;8.65;100.00
67840;BME280;54636;51.684;5.142;2022-12-24T07:45:11;101088.16;;;8.73;100.00
67840;BME280;54636;51.684;5.142;2022-12-24T07:47:36;101094.50;;;8.70;100.00
67840;BME280;54636;51.684;5.142;2022-12-24T07:50:03;101103.38;;;8.71;100.00
67840;BME280;54636;51.684;5.142;2022-12-24T07:52:28;101109.53;;;8.71;100.00
67840;BME280;54636;51.684;5.142;2022-12-24T07:54:53;101113.47;;;8.70;100.00
67840;BME280;54636;51.684;5.142;2022-12-24T07:57:19;101121.28;;;8.68;100.00
67840;BME280;54636;51.684;5.142;2022-12-24T07:59:44;101126.66;;;8.77;100.00
67840;BME280;54636;51.684;5.142;2022-12-24T08:02:09;101137.16;;;8.84;100.00
67840;BME280;54636;51.684;5.142;2022-12-24T08:04:35;101140.91;;;8.87;100.00
67840;BME280;54636;51.684;5.142;2022-12-24T08:07:01;101143.28;;;8.94;100.00
67840;BME280;54636;51.684;5.142;2022-12-24T08:09:26;101143.81;;;9.07;100.00
67840;BME280;54636;51.684;5.142;2022-12-24T08:11:51;101151.41;;;9.18;100.00
67840;BME280;54636;51.684;5.142;2022-12-24T08:14:17;101153.66;;;9.19;100.00
67840;BME280;54636;51.684;5.142;2022-12-24T08:16:42;101160.22;;;9.28;100.00
67840;BME280;54636;51.684;5.142;2022-12-24T08:19:07;101167.53;;;9.36;100.00
67840;BME280;54636;51.684;5.142;2022-12-24T08:21:32;101168.72;;;9.59;100.00
67840;BME280;54636;51.684;5.142;2022-12-24T08:23:58;101171.63;;;9.55;100.00
67840;BME280;54636;51.684;5.142;2022-12-24T08:26:23;101172.94;;;9.60;100.00
67840;BME280;54636;51.684;5.142;2022-12-24T08:28:48;101179.22;;;9.66;100.00
67840;BME280;54636;51.684;5.142;2022-12-24T08:31:13;101179.03;;;9.70;100.00
67840;BME280;54636;51.684;5.142;2022-12-24T08:33:39;101177.34;;;9.72;100.00
67840;BME280;54636;51.684;5.142;2022-12-24T08:36:07;101176.59;;;9.72;100.00
67840;BME280;54636;51.684;5.142;2022-12-24T08:38:32;101184.75;;;9.72;100.00
67840;BME280;54636;51.684;5.142;2022-12-24T08:40:58;101191.38;;;9.71;100.00
67840;BME280;54636;51.684;5.142;2022-12-24T08:43:23;101195.88;;;9.74;100.00
67840;BME280;54636;51.684;5.142;2022-12-24T08:45:50;101193.72;;;9.78;100.00
67840;BME280;54636;51.684;5.142;2022-12-24T08:48:16;101200.91;;;9.81;100.00
67840;BME280;54636;51.684;5.142;2022-12-24T08:50:41;101205.78;;;9.77;100.00
67840;BME280;54636;51.684;5.142;2022-12-24T08:53:07;101207.75;;;9.76;100.00
67840;BME280;54636;51.684;5.142;2022-12-24T08:55:32;101211.50;;;9.79;100.00
67840;BME280;54636;51.684;5.142;2022-12-24T08:57:58;101213.28;;;9.82;100.00
67840;BME280;54636;51.684;5.142;2022-12-24T09:00:23;101214.94;;;9.79;100.00
67840;BME280;54636;51.684;5.142;2022-12-24T09:02:48;101214.50;;;9.81;100.00
67840;BME280;54636;51.684;5.142;2022-12-24T09:05:17;101210.38;;;9.85;100.00
67840;BME280;54636;51.684;5.142;2022-12-24T09:07:42;101226.47;;;9.89;100.00
67840;BME280;54636;51.684;5.142;2022-12-24T09:10:08;101230.25;;;10.06;100.00
67840;BME280;54636;51.684;5.142;2022-12-24T09:12:33;101236.44;;;10.07;100.00
67840;BME280;54636;51.684;5.142;2022-12-24T09:15:01;101228.69;;;10.14;100.00
67840;BME280;54636;51.684;5.142;2022-12-24T09:17:27;101234.50;;;10.22;100.00
67840;BME280;54636;51.684;5.142;2022-12-24T09:19:52;101238.19;;;10.34;100.00
67840;BME280;54636;51.684;5.142;2022-12-24T09:22:17;101246.75;;;10.47;100.00
67840;BME280;54636;51.684;5.142;2022-12-24T09:24:43;101252.84;;;10.56;100.00
67840;BME280;54636;51.684;5.142;2022-12-24T09:27:08;101257.91;;;10.64;100.00
67840;BME280;54636;51.684;5.142;2022-12-24T09:29:33;101258.09;;;10.60;100.00
67840;BME280;54636;51.684;5.142;2022-12-24T09:31:59;101268.88;;;10.54;100.00
67840;BME280;54636;51.684;5.142;2022-12-24T09:34:25;101268.31;;;10.50;100.00
67840;BME280;54636;51.684;5.142;2022-12-24T09:36:51;101267.56;;;10.35;100.00
67840;BME280;54636;51.684;5.142;2022-12-24T09:39:18;101270.28;;;10.35;100.00
67840;BME280;54636;51.684;5.142;2022-12-24T09:41:52;101275.44;;;10.33;100.00
67840;BME280;54636;51.684;5.142;2022-12-24T09:46:52;101276.47;;;10.36;100.00
67840;BME280;54636;51.684;5.142;2022-12-24T09:49:19;101286.56;;;10.50;100.00
67840;BME280;54636;51.684;5.142;2022-12-24T09:56:40;101304.28;;;10.60;100.00
67840;BME280;54636;51.684;5.142;2022-12-24T09:59:12;101307.66;;;10.70;100.00
67840;BME280;54636;51.684;5.142;2022-12-24T10:01:38;101308.31;;;10.65;100.00
67840;BME280;54636;51.684;5.142;2022-12-24T10:04:06;101305.50;;;10.74;100.00
67840;BME280;54636;51.684;5.142;2022-12-24T10:06:41;101302.22;;;10.84;100.00
67840;BME280;54636;51.684;5.142;2022-12-24T10:09:14;101307.00;;;10.89;100.00
67840;BME280;54636;51.684;5.142;2022-12-24T10:11:49;101307.56;;;10.94;100.00
67840;BME280;54636;51.684;5.142;2022-12-24T10:19:35;101294.63;;;10.88;100.00
67840;BME280;54636;51.684;5.142;2022-12-24T10:24:58;101294.63;;;10.88;100.00
67840;BME280;54636;51.684;5.142;2022-12-24T10:27:28;101294.34;;;10.86;100.00
67840;BME280;54636;51.684;5.142;2022-12-24T10:29:57;101297.63;;;10.91;100.00
67840;BME280;54636;51.684;5.142;2022-12-24T10:32:27;101290.22;;;10.91;100.00
67840;BME280;54636;51.684;5.142;2022-12-24T10:34:58;101299.50;;;10.84;100.00
67840;BME280;54636;51.684;5.142;2022-12-24T10:37:24;101305.88;;;10.81;100.00
67840;BME280;54636;51.684;5.142;2022-12-24T10:39:52;101296.88;;;10.75;100.00
67840;BME280;54636;51.684;5.142;2022-12-24T10:42:18;101308.22;;;10.88;100.00
67840;BME280;54636;51.684;5.142;2022-12-24T10:44:44;101302.00;;;11.03;100.00
67840;BME280;54636;51.684;5.142;2022-12-24T10:47:11;101312.09;;;11.17;100.00
67840;BME280;54636;51.684;5.142;2022-12-24T10:49:44;101307.72;;;11.05;100.00
67840;BME280;54636;51.684;5.142;2022-12-24T10:52:11;101312.25;;;10.93;100.00
67840;BME280;54636;51.684;5.142;2022-12-24T10:54:38;101298.75;;;10.99;100.00
67840;BME280;54636;51.684;5.142;2022-12-24T10:57:24;101312.63;;;11.21;100.00
67840;BME280;54636;51.684;5.142;2022-12-24T10:59:53;101301.88;;;11.12;100.00
67840;BME280;54636;51.684;5.142;2022-12-24T11:02:26;101300.38;;;11.11;100.00
67840;BME280;54636;51.684;5.142;2022-12-24T11:04:52;101315.78;;;10.99;100.00
67840;BME280;54636;51.684;5.142;2022-12-24T11:07:18;101316.66;;;10.91;100.00
67840;BME280;54636;51.684;5.142;2022-12-24T11:09:52;101316.56;;;10.85;100.00
67840;BME280;54636;51.684;5.142;2022-12-24T11:12:20;101320.13;;;10.91;100.00
67840;BME280;54636;51.684;5.142;2022-12-24T11:14:46;101312.94;;;11.08;100.00
67840;BME280;54636;51.684;5.142;2022-12-24T11:17:18;101311.16;;;11.05;100.00
67840;BME280;54636;51.684;5.142;2022-12-24T11:19:46;101309.69;;;11.04;100.00
67840;BME280;54636;51.684;5.142;2022-12-24T11:22:25;101308.97;;;10.89;100.00
67840;BME280;54636;51.684;5.142;2022-12-24T11:24:56;101318.72;;;10.81;100.00
67840;BME280;54636;51.684;5.142;2022-12-24T11:30:02;101321.63;;;10.77;100.00
67840;BME280;54636;51.684;5.142;2022-12-24T11:32:35;101317.22;;;10.80;100.00
67840;BME280;54636;51.684;5.142;2022-12-24T11:35:04;101333.59;;;10.85;100.00
67840;BME280;54636;51.684;5.142;2022-12-24T11:37:30;101337.44;;;10.94;100.00
67840;BME280;54636;51.684;5.142;2022-12-24T11:39:57;101338.28;;;11.00;100.00
67840;BME280;54636;51.684;5.142;2022-12-24T11:42:36;101334.16;;;11.04;100.00
67840;BME280;54636;51.684;5.142;2022-12-24T11:45:06;101342.75;;;11.17;100.00
67840;BME280;54636;51.684;5.142;2022-12-24T11:47:38;101340.41;;;11.10;100.00
67840;BME280;54636;51.684;5.142;2022-12-24T11:50:17;101336.88;;;11.04;100.00
67840;BME280;54636;51.684;5.142;2022-12-24T11:52:44;101334.16;;;11.04;100.00
67840;BME280;54636;51.684;5.142;2022-12-24T11:55:16;101332.44;;;11.07;100.00
67840;BME280;54636;51.684;5.142;2022-12-24T11:58:04;101339.66;;;11.10;100.00
67840;BME280;54636;51.684;5.142;2022-12-24T12:00:35;101336.03;;;10.98;100.00
67840;BME280;54636;51.684;5.142;2022-12-24T12:03:00;101340.44;;;10.96;100.00
67840;BME280;54636;51.684;5.142;2022-12-24T12:05:28;101335.75;;;10.96;100.00
67840;BME280;54636;51.684;5.142;2022-12-24T12:08:00;101353.38;;;11.01;100.00
67840;BME280;54636;51.684;5.142;2022-12-24T12:10:30;101353.19;;;11.04;100.00
67840;BME280;54636;51.684;5.142;2022-12-24T12:13:12;101352.16;;;11.02;100.00
67840;BME280;54636;51.684;5.142;2022-12-24T12:18:35;101355.25;;;10.95;100.00
67840;BME280;54636;51.684;5.142;2022-12-24T12:21:03;101358.72;;;10.95;100.00
67840;BME280;54636;51.684;5.142;2022-12-24T12:26:09;101369.38;;;11.13;100.00
67840;BME280;54636;51.684;5.142;2022-12-24T12:31:08;101357.19;;;11.23;100.00
67840;BME280;54636;51.684;5.142;2022-12-24T12:33:37;101363.09;;;11.22;100.00
67840;BME280;54636;51.684;5.142;2022-12-24T12:36:03;101362.69;;;11.29;100.00
67840;BME280;54636;51.684;5.142;2022-12-24T12:38:29;101365.13;;;11.27;100.00
67840;BME280;54636;51.684;5.142;2022-12-24T12:45:55;101364.72;;;10.99;100.00
67840;BME280;54636;51.684;5.142;2022-12-24T12:50:51;101378.59;;;10.86;100.00
67840;BME280;54636;51.684;5.142;2022-12-24T13:00:58;101377.94;;;10.92;100.00
67840;BME280;54636;51.684;5.142;2022-12-24T13:14:04;101395.91;;;11.18;100.00
67840;BME280;54636;51.684;5.142;2022-12-24T13:21:34;101387.22;;;10.85;100.00
67840;BME280;54636;51.684;5.142;2022-12-24T13:26:30;101389.69;;;10.59;100.00
67840;BME280;54636;51.684;5.142;2022-12-24T13:29:11;101388.63;;;10.42;100.00
67840;BME280;54636;51.684;5.142;2022-12-24T13:31:41;101393.41;;;10.32;100.00
67840;BME280;54636;51.684;5.142;2022-12-24T13:34:06;101405.84;;;10.24;100.00
67840;BME280;54636;51.684;5.142;2022-12-24T13:37:12;101405.41;;;10.16;100.00
67840;BME280;54636;51.684;5.142;2022-12-24T13:53:02;101411.19;;;10.09;100.00
67840;BME280;54636;51.684;5.142;2022-12-24T13:55:28;101408.28;;;10.13;100.00
67840;BME280;54636;51.684;5.142;2022-12-24T14:05:16;101416.38;;;9.98;100.00
67840;BME280;54636;51.684;5.142;2022-12-24T14:16:29;101434.94;;;9.90;100.00
67840;BME280;54636;51.684;5.142;2022-12-24T14:21:25;101432.88;;;9.85;100.00
67840;BME280;54636;51.684;5.142;2022-12-24T14:23:55;101431.53;;;9.81;100.00
67840;BME280;54636;51.684;5.142;2022-12-24T14:26:23;101427.47;;;9.76;100.00
67840;BME280;54636;51.684;5.142;2022-12-24T14:28:51;101428.41;;;9.73;100.00
67840;BME280;54636;51.684;5.142;2022-12-24T14:31:18;101429.03;;;9.68;100.00
67840;BME280;54636;51.684;5.142;2022-12-24T14:33:47;101426.97;;;9.63;100.00
67840;BME280;54636;51.684;5.142;2022-12-24T14:36:13;101439.19;;;9.58;100.00
67840;BME280;54636;51.684;5.142;2022-12-24T14:38:40;101433.31;;;9.51;100.00
67840;BME280;54636;51.684;5.142;2022-12-24T14:41:28;101433.19;;;9.45;100.00
67840;BME280;54636;51.684;5.142;2022-12-24T14:46:48;101441.66;;;9.29;100.00
67840;BME280;54636;51.684;5.142;2022-12-24T14:54:31;101458.84;;;9.17;100.00
67840;BME280;54636;51.684;5.142;2022-12-24T14:59:47;101464.63;;;9.10;100.00